Time,TemperatureF,DewpointF,PressureIn,WindDirection,WindDirectionDegrees,WindSpeedMPH,WindSpeedGustMPH,Humidity,HourlyPrecipIn,Conditions,Clouds,dailyrainin,SoftwareType,DateUTC
2013-01-08 00:03:00,32.0,25.0,30.27,SW,231,4.0,9.0,74,0.00,,,0.00,,2013-01-08 05:03:00,
2013-01-08 00:12:00,32.0,25.0,30.27,SW,231,4.0,9.0,74,0.00,,,0.00,,2013-01-08 05:12:00,
2013-01-08 00:22:00,32.0,25.0,30.28,SW,215,4.0,8.0,74,0.00,,,0.00,,2013-01-08 05:22:00,
2013-01-08 00:33:00,32.0,25.0,30.28,WSW,239,1.0,5.0,74,0.00,,,0.00,,2013-01-08 05:33:00,
2013-01-08 00:42:00,32.0,25.0,30.28,WSW,239,1.0,5.0,74,0.00,,,0.00,,2013-01-08 05:42:00,
2013-01-08 00:53:00,32.0,25.0,30.28,WSW,242,1.0,5.0,74,0.00,,,0.00,,2013-01-08 05:53:00,
2013-01-08 01:02:00,32.0,25.0,30.28,WSW,238,0.0,3.0,74,0.00,,,0.00,,2013-01-08 06:02:00,
2013-01-08 01:12:00,32.0,25.0,30.28,WSW,238,0.0,3.0,74,0.00,,,0.00,,2013-01-08 06:12:00,
2013-01-08 01:22:00,32.0,25.0,30.27,WSW,242,0.0,7.0,75,0.00,,,0.00,,2013-01-08 06:22:00,
2013-01-08 01:33:00,32.0,25.0,30.26,West,259,0.0,3.0,76,0.00,,,0.00,,2013-01-08 06:33:00,
2013-01-08 01:42:00,32.0,25.0,30.26,West,259,0.0,3.0,76,0.00,,,0.00,,2013-01-08 06:42:00,
2013-01-08 01:53:00,32.0,26.0,30.26,West,273,2.0,7.0,77,0.00,,,0.00,,2013-01-08 06:53:00,
2013-01-08 02:02:00,32.0,26.0,30.27,West,280,1.0,7.0,77,0.00,,,0.00,,2013-01-08 07:02:00,
2013-01-08 02:12:00,32.0,26.0,30.27,West,280,1.0,7.0,77,0.00,,,0.00,,2013-01-08 07:12:00,
2013-01-08 02:22:00,31.0,25.0,30.26,SSW,206,3.0,7.0,78,0.00,,,0.00,,2013-01-08 07:22:00,
2013-01-08 02:32:00,31.0,25.0,30.26,WSW,244,2.0,4.0,79,0.00,,,0.00,,2013-01-08 07:32:00,
2013-01-08 02:42:00,31.0,25.0,30.26,WSW,244,2.0,4.0,79,0.00,,,0.00,,2013-01-08 07:42:00,
2013-01-08 02:52:00,31.0,25.0,30.27,WSW,250,0.0,5.0,79,0.00,,,0.00,,2013-01-08 07:52:00,
2013-01-08 03:02:00,31.0,26.0,30.27,West,264,2.0,7.0,80,0.00,,,0.00,,2013-01-08 08:02:00,
2013-01-08 03:12:00,31.0,26.0,30.27,West,264,2.0,7.0,80,0.00,,,0.00,,2013-01-08 08:12:00,
2013-01-08 03:22:00,32.0,27.0,30.27,SW,225,3.0,9.0,80,0.00,,,0.00,,2013-01-08 08:22:00,
2013-01-08 03:32:00,32.0,26.0,30.27,SW,227,0.0,5.0,79,0.00,,,0.00,,2013-01-08 08:32:00,
2013-01-08 03:42:00,32.0,26.0,30.27,SW,227,0.0,5.0,79,0.00,,,0.00,,2013-01-08 08:42:00,
2013-01-08 03:53:00,31.0,25.0,30.26,SW,233,0.0,1.0,79,0.00,,,0.00,,2013-01-08 08:53:00,
2013-01-08 04:02:00,29.0,23.0,30.27,SW,234,0.0,2.0,79,0.00,,,0.00,,2013-01-08 09:02:00,
2013-01-08 04:12:00,29.0,24.0,30.26,WSW,242,0.0,3.0,81,0.00,,,0.00,,2013-01-08 09:12:00,
2013-01-08 04:22:00,29.0,24.0,30.26,WSW,242,0.0,3.0,81,0.00,,,0.00,,2013-01-08 09:22:00,
2013-01-08 04:32:00,30.0,25.0,30.26,SW,232,3.0,5.0,81,0.00,,,0.00,,2013-01-08 09:32:00,
2013-01-08 04:42:00,30.0,25.0,30.26,SW,232,3.0,5.0,81,0.00,,,0.00,,2013-01-08 09:42:00,
2013-01-08 04:52:00,31.0,25.0,30.25,SW,232,0.0,3.0,79,0.00,,,0.00,,2013-01-08 09:52:00,
2013-01-08 05:02:00,29.0,24.0,30.25,SW,233,0.0,0.0,80,0.00,,,0.00,,2013-01-08 10:02:00,
2013-01-08 05:12:00,29.0,24.0,30.25,SW,233,0.0,0.0,80,0.00,,,0.00,,2013-01-08 10:12:00,
2013-01-08 05:22:00,28.0,23.0,30.24,SW,233,0.0,0.0,80,0.00,,,0.00,,2013-01-08 10:22:00,
2013-01-08 05:32:00,28.0,23.0,30.24,SW,230,2.0,4.0,81,0.00,,,0.00,,2013-01-08 10:32:00,
2013-01-08 05:42:00,28.0,23.0,30.24,SW,230,2.0,4.0,81,0.00,,,0.00,,2013-01-08 10:42:00,
2013-01-08 05:52:00,29.0,23.0,30.24,SW,230,0.0,0.0,78,0.00,,,0.00,,2013-01-08 10:52:00,
2013-01-08 06:02:00,29.0,23.0,30.25,SW,229,1.0,5.0,77,0.00,,,0.00,,2013-01-08 11:02:00,
2013-01-08 06:12:00,29.0,23.0,30.25,SW,229,1.0,5.0,77,0.00,,,0.00,,2013-01-08 11:12:00,
2013-01-08 06:22:00,30.0,23.0,30.26,WSW,248,0.0,6.0,75,0.00,,,0.00,,2013-01-08 11:22:00,
2013-01-08 06:33:00,28.0,22.0,30.26,WSW,248,0.0,4.0,79,0.00,,,0.00,,2013-01-08 11:33:00,
2013-01-08 06:42:00,28.0,22.0,30.26,WSW,248,0.0,4.0,79,0.00,,,0.00,,2013-01-08 11:42:00,
2013-01-08 06:53:00,31.0,23.0,30.26,WNW,291,2.0,6.0,73,0.00,,,0.00,,2013-01-08 11:53:00,
2013-01-08 07:03:00,29.0,22.0,30.26,West,279,0.0,0.0,74,0.00,,,0.00,,2013-01-08 12:03:00,
2013-01-08 07:12:00,29.0,22.0,30.26,West,279,0.0,0.0,74,0.00,,,0.00,,2013-01-08 12:12:00,
2013-01-08 07:22:00,30.0,23.0,30.26,WSW,252,3.0,7.0,74,0.00,,,0.00,,2013-01-08 12:22:00,
2013-01-08 07:33:00,31.0,23.0,30.27,SW,234,0.0,0.0,72,0.00,,,0.00,,2013-01-08 12:33:00,
2013-01-08 07:42:00,31.0,23.0,30.27,SW,234,0.0,0.0,72,0.00,,,0.00,,2013-01-08 12:42:00,
2013-01-08 07:53:00,31.0,24.0,30.28,WNW,284,3.0,7.0,75,0.00,,,0.00,,2013-01-08 12:53:00,
2013-01-08 08:03:00,29.0,22.0,30.28,WNW,286,0.0,0.0,75,0.00,,,0.00,,2013-01-08 13:03:00,
2013-01-08 08:12:00,29.0,22.0,30.28,WNW,286,0.0,0.0,75,0.00,,,0.00,,2013-01-08 13:12:00,
2013-01-08 08:22:00,28.0,22.0,30.28,WNW,286,0.0,0.0,77,0.00,,,0.00,,2013-01-08 13:22:00,
2013-01-08 08:33:00,27.0,21.0,30.28,WNW,286,0.0,0.0,78,0.00,,,0.00,,2013-01-08 13:33:00,
2013-01-08 08:43:00,27.0,21.0,30.28,WNW,286,0.0,0.0,78,0.00,,,0.00,,2013-01-08 13:43:00,
2013-01-08 08:53:00,27.0,22.0,30.29,WNW,286,0.0,0.0,80,0.00,,,0.00,,2013-01-08 13:53:00,
2013-01-08 09:02:00,28.0,23.0,30.29,WNW,286,0.0,0.0,81,0.00,,,0.00,,2013-01-08 14:02:00,
2013-01-08 09:12:00,28.0,23.0,30.29,WNW,286,0.0,0.0,81,0.00,,,0.00,,2013-01-08 14:12:00,
2013-01-08 09:23:00,33.0,27.0,30.31,SSW,196,4.0,10.0,79,0.00,,,0.00,,2013-01-08 14:23:00,
2013-01-08 09:33:00,34.0,27.0,30.32,SSW,192,6.0,11.0,75,0.00,,,0.00,,2013-01-08 14:33:00,
2013-01-08 09:43:00,34.0,27.0,30.32,SSW,192,6.0,11.0,75,0.00,,,0.00,,2013-01-08 14:43:00,
2013-01-08 09:53:00,35.0,27.0,30.32,WNW,286,2.0,8.0,73,0.00,,,0.00,,2013-01-08 14:53:00,
2013-01-08 10:03:00,36.0,28.0,30.32,WSW,244,1.0,6.0,72,0.00,,,0.00,,2013-01-08 15:03:00,
2013-01-08 10:12:00,36.0,28.0,30.32,WSW,244,1.0,6.0,72,0.00,,,0.00,,2013-01-08 15:12:00,
2013-01-08 10:22:00,37.0,27.0,30.32,SW,217,2.0,6.0,66,0.00,,,0.00,,2013-01-08 15:22:00,
2013-01-08 10:33:00,39.0,27.0,30.32,West,276,5.0,11.0,62,0.00,,,0.00,,2013-01-08 15:33:00,
2013-01-08 10:43:00,39.0,27.0,30.32,West,276,5.0,11.0,62,0.00,,,0.00,,2013-01-08 15:43:00,
2013-01-08 10:53:00,40.0,27.0,30.33,SW,221,7.0,12.0,59,0.00,,,0.00,,2013-01-08 15:53:00,
2013-01-08 11:03:00,40.0,27.0,30.32,WSW,237,3.0,10.0,60,0.00,,,0.00,,2013-01-08 16:03:00,
2013-01-08 11:12:00,40.0,27.0,30.32,WSW,237,3.0,10.0,60,0.00,,,0.00,,2013-01-08 16:12:00,
2013-01-08 11:23:00,41.0,27.0,30.32,SSW,204,3.0,7.0,58,0.00,,,0.00,,2013-01-08 16:23:00,
2013-01-08 11:34:00,42.0,27.0,30.32,SSW,201,4.0,9.0,56,0.00,,,0.00,,2013-01-08 16:34:00,
2013-01-08 11:42:00,42.0,27.0,30.32,SSW,201,4.0,9.0,56,0.00,,,0.00,,2013-01-08 16:42:00,
2013-01-08 11:53:00,43.0,28.0,30.31,SSW,194,2.0,7.0,54,0.00,,,0.00,,2013-01-08 16:53:00,
2013-01-08 12:03:00,44.0,28.0,30.30,South,186,5.0,9.0,53,0.00,,,0.00,,2013-01-08 17:03:00,
2013-01-08 12:13:00,44.0,28.0,30.30,South,186,5.0,9.0,53,0.00,,,0.00,,2013-01-08 17:13:00,
2013-01-08 12:23:00,46.0,27.0,30.29,South,186,0.0,5.0,48,0.00,,,0.00,,2013-01-08 17:23:00,
2013-01-08 12:33:00,48.0,28.0,30.29,SE,145,0.0,4.0,45,0.00,,,0.00,,2013-01-08 17:33:00,
2013-01-08 12:43:00,48.0,28.0,30.29,SE,145,0.0,4.0,45,0.00,,,0.00,,2013-01-08 17:43:00,
2013-01-08 12:54:00,49.0,29.0,30.29,South,182,0.0,6.0,45,0.00,,,0.00,,2013-01-08 17:54:00,
2013-01-08 13:03:00,48.0,28.0,30.28,SW,230,0.0,7.0,45,0.00,,,0.00,,2013-01-08 18:03:00,
2013-01-08 13:13:00,48.0,28.0,30.28,SW,230,0.0,7.0,45,0.00,,,0.00,,2013-01-08 18:13:00,
2013-01-08 13:23:00,48.0,27.0,30.28,SW,227,0.0,6.0,44,0.00,,,0.00,,2013-01-08 18:23:00,
2013-01-08 13:33:00,49.0,28.0,30.28,WSW,244,3.0,6.0,44,0.00,,,0.00,,2013-01-08 18:33:00,
2013-01-08 13:43:00,49.0,28.0,30.28,WSW,244,3.0,6.0,44,0.00,,,0.00,,2013-01-08 18:43:00,
2013-01-08 13:53:00,50.0,28.0,30.28,SE,134,1.0,4.0,43,0.00,,,0.00,,2013-01-08 18:53:00,
2013-01-08 14:03:00,52.0,28.0,30.27,SSE,148,0.0,4.0,39,0.00,,,0.00,,2013-01-08 19:03:00,
2013-01-08 14:12:00,52.0,28.0,30.27,SSE,148,0.0,4.0,39,0.00,,,0.00,,2013-01-08 19:12:00,
2013-01-08 14:23:00,53.0,27.0,30.27,SSW,200,0.0,2.0,37,0.00,,,0.00,,2013-01-08 19:23:00,
2013-01-08 14:33:00,53.0,28.0,30.27,SSW,201,2.0,5.0,38,0.00,,,0.00,,2013-01-08 19:33:00,
2013-01-08 14:42:00,53.0,28.0,30.27,SSW,201,2.0,5.0,38,0.00,,,0.00,,2013-01-08 19:42:00,
2013-01-08 14:53:00,55.0,29.0,30.26,South,176,0.0,1.0,36,0.00,,,0.00,,2013-01-08 19:53:00,
2013-01-08 15:03:00,54.0,30.0,30.26,South,173,0.0,1.0,40,0.00,,,0.00,,2013-01-08 20:03:00,
2013-01-08 15:12:00,54.0,30.0,30.26,South,173,0.0,1.0,40,0.00,,,0.00,,2013-01-08 20:12:00,
2013-01-08 15:23:00,53.0,29.0,30.26,SSW,213,4.0,7.0,39,0.00,,,0.00,,2013-01-08 20:23:00,
2013-01-08 15:33:00,52.0,30.0,30.26,SSW,192,2.0,6.0,43,0.00,,,0.00,,2013-01-08 20:33:00,
2013-01-08 15:43:00,52.0,30.0,30.26,SSW,192,2.0,6.0,43,0.00,,,0.00,,2013-01-08 20:43:00,
2013-01-08 15:54:00,51.0,31.0,30.27,SSE,164,0.0,6.0,47,0.00,,,0.00,,2013-01-08 20:54:00,
2013-01-08 16:03:00,50.0,32.0,30.27,SE,146,0.0,3.0,49,0.00,,,0.00,,2013-01-08 21:03:00,
2013-01-08 16:13:00,50.0,32.0,30.27,SE,146,0.0,3.0,49,0.00,,,0.00,,2013-01-08 21:13:00,
2013-01-08 16:23:00,51.0,32.0,30.27,SE,134,1.0,3.0,48,0.00,,,0.00,,2013-01-08 21:23:00,
2013-01-08 16:33:00,49.0,31.0,30.27,SE,133,0.0,0.0,49,0.00,,,0.00,,2013-01-08 21:33:00,
2013-01-08 16:43:00,49.0,31.0,30.27,SE,133,0.0,0.0,49,0.00,,,0.00,,2013-01-08 21:43:00,
2013-01-08 16:53:00,49.0,31.0,30.28,SE,133,0.0,1.0,50,0.00,,,0.00,,2013-01-08 21:53:00,
2013-01-08 17:03:00,48.0,30.0,30.29,SE,133,1.0,3.0,50,0.00,,,0.00,,2013-01-08 22:03:00,
2013-01-08 17:12:00,48.0,30.0,30.29,SE,133,1.0,3.0,50,0.00,,,0.00,,2013-01-08 22:12:00,
2013-01-08 17:23:00,47.0,31.0,30.28,South,177,0.0,2.0,54,0.00,,,0.00,,2013-01-08 22:23:00,
2013-01-08 17:33:00,46.0,31.0,30.28,South,176,0.0,0.0,56,0.00,,,0.00,,2013-01-08 22:33:00,
2013-01-08 17:43:00,46.0,31.0,30.28,South,176,0.0,0.0,56,0.00,,,0.00,,2013-01-08 22:43:00,
2013-01-08 17:53:00,44.0,30.0,30.28,South,177,0.0,0.0,58,0.00,,,0.00,,2013-01-08 22:53:00,
2013-01-08 18:03:00,43.0,30.0,30.29,South,176,0.0,0.0,61,0.00,,,0.00,,2013-01-08 23:03:00,
2013-01-08 18:13:00,43.0,30.0,30.29,South,176,0.0,0.0,61,0.00,,,0.00,,2013-01-08 23:13:00,
2013-01-08 18:22:00,42.0,30.0,30.29,South,177,0.0,0.0,63,0.00,,,0.00,,2013-01-08 23:22:00,
2013-01-08 18:33:00,40.0,29.0,30.29,South,177,0.0,0.0,65,0.00,,,0.00,,2013-01-08 23:33:00,
2013-01-08 18:43:00,40.0,29.0,30.29,South,177,0.0,0.0,65,0.00,,,0.00,,2013-01-08 23:43:00,
2013-01-08 18:53:00,40.0,30.0,30.29,West,274,0.0,0.0,66,0.00,,,0.00,,2013-01-08 23:53:00,
2013-01-08 19:03:00,39.0,30.0,30.29,West,274,0.0,0.0,69,0.00,,,0.00,,2013-01-09 00:03:00,
2013-01-08 19:12:00,39.0,30.0,30.29,West,274,0.0,0.0,69,0.00,,,0.00,,2013-01-09 00:12:00,
2013-01-08 19:22:00,39.0,30.0,30.29,West,273,0.0,0.0,70,0.00,,,0.00,,2013-01-09 00:22:00,
2013-01-08 19:33:00,38.0,29.0,30.29,West,274,0.0,0.0,71,0.00,,,0.00,,2013-01-09 00:33:00,
2013-01-08 19:42:00,38.0,29.0,30.29,West,274,0.0,0.0,71,0.00,,,0.00,,2013-01-09 00:42:00,
2013-01-08 19:53:00,38.0,30.0,30.30,West,275,0.0,0.0,73,0.00,,,0.00,,2013-01-09 00:53:00,
2013-01-08 20:02:00,37.0,29.0,30.30,West,275,0.0,0.0,74,0.00,,,0.00,,2013-01-09 01:02:00,
2013-01-08 20:12:00,37.0,29.0,30.30,West,275,0.0,0.0,74,0.00,,,0.00,,2013-01-09 01:12:00,
2013-01-08 20:22:00,37.0,30.0,30.30,WSW,255,0.0,3.0,75,0.00,,,0.00,,2013-01-09 01:22:00,
2013-01-08 20:33:00,37.0,30.0,30.30,WSW,254,2.0,4.0,77,0.00,,,0.00,,2013-01-09 01:33:00,
2013-01-08 20:42:00,37.0,30.0,30.30,WSW,254,2.0,4.0,77,0.00,,,0.00,,2013-01-09 01:42:00,
2013-01-08 20:52:00,39.0,32.0,30.30,WSW,241,3.0,6.0,75,0.00,,,0.00,,2013-01-09 01:52:00,
2013-01-08 21:02:00,39.0,31.0,30.31,West,267,4.0,6.0,74,0.00,,,0.00,,2013-01-09 02:02:00,
2013-01-08 21:12:00,39.0,31.0,30.31,West,267,4.0,6.0,74,0.00,,,0.00,,2013-01-09 02:12:00,
2013-01-08 21:22:00,39.0,31.0,30.30,WSW,258,4.0,8.0,74,0.00,,,0.00,,2013-01-09 02:22:00,
2013-01-08 21:33:00,40.0,32.0,30.30,West,273,2.0,8.0,73,0.00,,,0.00,,2013-01-09 02:33:00,
2013-01-08 21:43:00,40.0,32.0,30.30,West,273,2.0,8.0,73,0.00,,,0.00,,2013-01-09 02:43:00,
2013-01-08 21:53:00,40.0,32.0,30.30,WSW,243,2.0,6.0,73,0.00,,,0.00,,2013-01-09 02:53:00,
2013-01-08 22:03:00,40.0,32.0,30.30,WNW,286,4.0,8.0,74,0.00,,,0.00,,2013-01-09 03:03:00,
2013-01-08 22:12:00,40.0,32.0,30.30,WNW,286,4.0,8.0,74,0.00,,,0.00,,2013-01-09 03:12:00,
2013-01-08 22:22:00,38.0,31.0,30.31,WNW,282,1.0,5.0,76,0.00,,,0.00,,2013-01-09 03:22:00,
2013-01-08 22:33:00,40.0,34.0,30.30,WSW,253,1.0,6.0,79,0.00,,,0.00,,2013-01-09 03:33:00,
2013-01-08 22:43:00,40.0,34.0,30.30,WSW,253,1.0,6.0,79,0.00,,,0.00,,2013-01-09 03:43:00,
2013-01-08 22:53:00,41.0,35.0,30.30,SW,230,0.0,4.0,80,0.00,,,0.00,,2013-01-09 03:53:00,
2013-01-08 23:02:00,42.0,37.0,30.30,SSW,211,7.0,11.0,81,0.00,,,0.00,,2013-01-09 04:02:00,
2013-01-08 23:12:00,42.0,37.0,30.30,SSW,211,7.0,11.0,81,0.00,,,0.00,,2013-01-09 04:12:00,
2013-01-08 23:22:00,42.0,36.0,30.31,SSW,203,2.0,6.0,78,0.00,,,0.00,,2013-01-09 04:22:00,
2013-01-08 23:32:00,42.0,37.0,30.32,SSW,198,5.0,11.0,81,0.00,,,0.00,,2013-01-09 04:32:00,
2013-01-08 23:42:00,40.0,34.0,30.32,West,261,3.0,6.0,79,0.00,,,0.00,,2013-01-09 04:42:00,
2013-01-08 23:52:00,40.0,34.0,30.32,West,261,3.0,6.0,79,0.00,,,0.00,,2013-01-09 04:52:00,